Time;durP1;ratioP1;P1;durP2;ratioP2;P2;SDS_P1;SDS_P2;PMS_P1;PMS_P2;Temp;Humidity;BMP_temperature;BMP_pressure;BME280_temperature;BME280_humidity;BME280_pressure;Samples;Min_cycle;Max_cycle;Signal;HPM_P1;HPM_P2
2024/04/06 00:00:22;;;;;;;10.13;4.97;;;14.10;99.90;;;;;;5048548;28;20450;-67
2024/04/06 00:02:48;;;;;;;10.57;4.13;;;14.00;99.90;;;;;;5048633;28;20446;-69
2024/04/06 00:05:18;;;;;;;10.50;3.93;;;13.90;99.90;;;;;;5047977;28;20535;-69
2024/04/06 00:07:44;;;;;;;9.63;3.97;;;13.80;99.90;;;;;;5046197;28;20449;-66
2024/04/06 00:10:10;;;;;;;12.40;4.17;;;13.70;99.90;;;;;;5047479;28;20844;-65
2024/04/06 00:12:38;;;;;;;8.63;3.93;;;13.70;99.90;;;;;;5051756;28;20446;-68
2024/04/06 00:15:05;;;;;;;10.30;4.30;;;14.00;99.90;;;;;;5047981;28;20466;-67
2024/04/06 00:17:32;;;;;;;10.10;3.80;;;14.20;99.90;;;;;;5048812;28;20453;-66
2024/04/06 00:19:59;;;;;;;9.10;3.67;;;14.30;99.90;;;;;;5048974;28;20452;-67
2024/04/06 00:22:26;;;;;;;9.60;3.90;;;14.40;99.90;;;;;;5048567;28;20451;-67
2024/04/06 00:24:53;;;;;;;11.07;3.80;;;14.20;99.90;;;;;;5049119;28;20463;-67
2024/04/06 00:27:19;;;;;;;11.37;4.23;;;14.00;99.90;;;;;;5049444;28;20443;-68
2024/04/06 00:29:47;;;;;;;8.97;3.93;;;13.80;99.90;;;;;;5049098;28;20534;-67
2024/04/06 00:32:13;;;;;;;11.90;4.60;;;13.80;99.90;;;;;;5048949;28;20437;-67
2024/04/06 00:34:40;;;;;;;9.10;3.67;;;13.70;99.90;;;;;;5048917;28;20458;-67
2024/04/06 00:37:07;;;;;;;9.93;3.93;;;13.80;99.90;;;;;;5048440;28;20444;-67
2024/04/06 00:39:34;;;;;;;11.30;4.93;;;13.60;99.90;;;;;;5065901;28;20517;-65
2024/04/06 00:42:00;;;;;;;9.20;4.50;;;13.70;99.90;;;;;;5048961;28;20444;-68
2024/04/06 00:44:27;;;;;;;10.33;4.50;;;13.80;99.90;;;;;;5050249;28;20513;-67
2024/04/06 00:47:01;;;;;;;11.03;4.97;;;13.80;99.90;;;;;;5062835;28;20455;-68
2024/04/06 00:49:28;;;;;;;13.20;4.70;;;13.80;99.90;;;;;;5050288;28;20486;-67
2024/04/06 00:51:54;;;;;;;11.17;4.40;;;13.60;99.90;;;;;;5051206;28;20450;-67
2024/04/06 00:54:22;;;;;;;9.90;4.50;;;13.50;99.90;;;;;;5066987;28;20457;-68
2024/04/06 00:56:49;;;;;;;9.30;4.00;;;13.30;99.90;;;;;;5049977;28;20455;-67
2024/04/06 00:59:16;;;;;;;11.67;5.43;;;13.10;99.90;;;;;;5050470;28;20945;-67
2024/04/06 01:01:42;;;;;;;10.57;4.40;;;13.00;99.90;;;;;;5050520;28;20451;-67
2024/04/06 01:04:11;;;;;;;9.90;4.57;;;13.00;99.90;;;;;;5046370;28;21029;-67
2024/04/06 01:06:37;;;;;;;11.10;4.93;;;12.90;99.90;;;;;;5050123;28;20895;-67
2024/04/06 01:09:04;;;;;;;10.90;4.83;;;12.80;99.90;;;;;;5049549;28;20443;-67
2024/04/06 01:11:30;;;;;;;10.00;4.30;;;12.60;99.90;;;;;;5070832;28;20458;-68
2024/04/06 01:13:57;;;;;;;10.07;4.00;;;12.50;99.90;;;;;;5049626;28;20505;-68
2024/04/06 01:16:23;;;;;;;13.40;4.90;;;12.60;99.90;;;;;;5065926;28;20467;-68
2024/04/06 01:18:50;;;;;;;10.43;4.43;;;12.70;99.90;;;;;;5066631;28;20454;-68
2024/04/06 01:21:19;;;;;;;12.40;4.73;;;12.80;99.90;;;;;;5066475;28;20444;-68
2024/04/06 01:23:47;;;;;;;9.63;4.23;;;12.80;99.90;;;;;;5048921;28;20447;-68
2024/04/06 01:26:14;;;;;;;10.80;4.30;;;12.60;99.90;;;;;;5049422;28;20466;-68
2024/04/06 01:28:42;;;;;;;10.47;4.10;;;12.30;99.90;;;;;;5057966;28;20473;-68
2024/04/06 01:31:09;;;;;;;11.13;5.03;;;12.20;99.90;;;;;;5058637;28;20482;-69
2024/04/06 01:33:36;;;;;;;11.10;4.40;;;12.00;99.90;;;;;;5059057;28;20494;-68
2024/04/06 01:36:02;;;;;;;9.80;4.30;;;11.90;99.90;;;;;;5052571;28;20470;-67
2024/04/06 01:38:29;;;;;;;13.33;5.30;;;11.90;99.90;;;;;;5050072;28;20722;-69
2024/04/06 01:40:55;;;;;;;11.70;4.80;;;11.80;99.90;;;;;;5049524;28;20446;-69
2024/04/06 01:43:23;;;;;;;11.47;5.23;;;11.70;99.90;;;;;;5049666;28;20453;-68
2024/04/06 01:45:49;;;;;;;10.30;4.90;;;11.60;99.90;;;;;;5049430;28;20481;-68
2024/04/06 01:48:16;;;;;;;10.40;4.60;;;11.60;99.90;;;;;;5050618;28;20524;-68
2024/04/06 01:50:43;;;;;;;11.80;4.37;;;11.50;99.90;;;;;;5050089;28;20471;-68
2024/04/06 01:53:10;;;;;;;9.80;4.47;;;11.40;99.90;;;;;;5049496;28;20444;-67
2024/04/06 01:55:36;;;;;;;11.93;5.03;;;11.40;99.90;;;;;;5049563;28;20464;-67
2024/04/06 01:58:03;;;;;;;12.80;5.27;;;11.70;99.90;;;;;;5050302;28;20490;-67
2024/04/06 02:00:30;;;;;;;11.67;5.27;;;11.90;99.90;;;;;;5043185;28;20458;-67
2024/04/06 02:02:57;;;;;;;10.07;4.60;;;12.10;99.90;;;;;;5049647;28;20454;-67
2024/04/06 02:05:23;;;;;;;11.10;4.77;;;12.20;99.90;;;;;;5049493;28;20459;-68
2024/04/06 02:07:50;;;;;;;11.13;4.30;;;12.10;99.90;;;;;;5048588;28;20454;-68
2024/04/06 02:10:16;;;;;;;9.83;4.53;;;12.00;99.90;;;;;;5048868;28;20479;-68
2024/04/06 02:12:43;;;;;;;10.60;5.27;;;12.00;99.90;;;;;;5049575;28;20940;-67
2024/04/06 02:15:09;;;;;;;10.33;4.73;;;12.00;99.90;;;;;;5049309;28;20497;-69
2024/04/06 02:17:37;;;;;;;8.53;3.80;;;12.20;99.90;;;;;;5049136;28;20815;-69
2024/04/06 02:20:05;;;;;;;9.20;4.00;;;12.50;99.90;;;;;;5049276;28;20978;-68
2024/04/06 02:22:32;;;;;;;10.90;4.60;;;12.70;99.90;;;;;;5049369;28;20450;-68
2024/04/06 02:24:58;;;;;;;10.10;3.93;;;12.80;99.90;;;;;;5049098;28;20479;-68
2024/04/06 02:27:25;;;;;;;12.27;5.10;;;12.70;99.90;;;;;;5048936;28;20462;-68
2024/04/06 02:29:51;;;;;;;11.40;5.00;;;12.70;99.90;;;;;;5048720;28;20475;-68
2024/04/06 02:32:18;;;;;;;9.87;4.53;;;12.60;99.90;;;;;;5049025;28;20446;-68
2024/04/06 02:34:45;;;;;;;10.30;4.80;;;12.50;99.90;;;;;;5048473;28;20463;-67
2024/04/06 02:37:12;;;;;;;11.57;4.97;;;12.20;99.90;;;;;;5048622;28;20446;-67
2024/04/06 02:39:38;;;;;;;12.37;5.20;;;12.20;99.90;;;;;;5048728;28;20520;-69
2024/04/06 02:42:06;;;;;;;12.17;4.73;;;12.10;99.90;;;;;;5051108;28;20531;-67
2024/04/06 02:44:32;;;;;;;9.80;5.13;;;12.20;99.90;;;;;;5052557;28;20452;-67
2024/04/06 02:46:59;;;;;;;10.23;4.80;;;12.00;99.90;;;;;;5052948;28;20439;-67
2024/04/06 02:49:25;;;;;;;12.00;4.60;;;12.00;99.90;;;;;;5052828;28;20457;-69
2024/04/06 02:51:53;;;;;;;8.80;4.30;;;12.00;99.90;;;;;;5069782;28;20439;-67
2024/04/06 02:54:19;;;;;;;12.53;5.77;;;12.10;99.90;;;;;;5052913;28;20449;-68
2024/04/06 02:56:46;;;;;;;11.50;4.23;;;12.10;99.90;;;;;;5052647;28;20896;-67
2024/04/06 02:59:12;;;;;;;13.07;5.40;;;12.10;99.90;;;;;;5069455;28;20452;-68
2024/04/06 03:01:39;;;;;;;11.67;4.57;;;12.00;99.90;;;;;;5052837;28;20434;-69
2024/04/06 03:04:06;;;;;;;11.53;5.33;;;11.80;99.90;;;;;;5052829;28;20447;-67
2024/04/06 03:06:33;;;;;;;10.57;4.93;;;11.80;99.90;;;;;;5052674;28;20459;-68
2024/04/06 03:09:00;;;;;;;12.90;4.63;;;11.70;99.90;;;;;;5052628;28;20457;-68
2024/04/06 03:11:27;;;;;;;10.90;5.07;;;11.80;99.90;;;;;;5052236;28;20475;-68
2024/04/06 03:13:53;;;;;;;9.97;5.00;;;11.80;99.90;;;;;;5069151;28;20458;-69
2024/04/06 03:16:21;;;;;;;11.53;5.17;;;11.90;99.90;;;;;;5051631;28;20479;-69
2024/04/06 03:18:47;;;;;;;9.93;4.73;;;11.80;99.90;;;;;;5051840;28;20496;-67
2024/04/06 03:21:14;;;;;;;11.50;4.50;;;11.70;99.90;;;;;;5052259;28;20447;-67
2024/04/06 03:23:40;;;;;;;11.57;4.70;;;11.80;99.90;;;;;;5051812;28;20457;-68
2024/04/06 03:26:08;;;;;;;12.27;5.07;;;12.00;99.90;;;;;;5051847;28;20462;-67
2024/04/06 03:28:34;;;;;;;10.37;4.33;;;12.10;99.90;;;;;;5068642;28;20447;-67
2024/04/06 03:31:01;;;;;;;9.23;4.13;;;12.30;99.90;;;;;;5052146;28;20510;-66
2024/04/06 03:33:27;;;;;;;9.97;4.13;;;12.30;99.90;;;;;;5051700;28;20452;-65
2024/04/06 03:35:54;;;;;;;10.40;4.67;;;12.20;99.90;;;;;;5047116;28;20564;-67
2024/04/06 03:38:21;;;;;;;9.83;4.10;;;12.20;99.90;;;;;;5069123;28;20851;-67
2024/04/06 03:40:48;;;;;;;10.33;4.40;;;12.30;99.90;;;;;;5051738;28;20447;-67
2024/04/06 03:43:15;;;;;;;9.27;4.47;;;12.30;99.90;;;;;;5051556;28;20450;-67
2024/04/06 03:45:43;;;;;;;10.53;4.93;;;12.20;99.90;;;;;;5051413;28;20845;-66
2024/04/06 03:48:09;;;;;;;9.73;3.83;;;12.20;99.90;;;;;;5051753;28;20484;-68
2024/04/06 03:50:36;;;;;;;10.10;3.80;;;12.20;99.90;;;;;;5051865;28;20475;-68
2024/04/06 03:53:03;;;;;;;10.20;3.80;;;12.30;99.90;;;;;;5051777;28;20834;-69
2024/04/06 03:55:30;;;;;;;10.33;3.93;;;12.30;99.90;;;;;;5051636;28;20471;-70
2024/04/06 03:57:56;;;;;;;12.70;4.83;;;12.30;99.90;;;;;;5052653;28;20446;-67
2024/04/06 04:00:24;;;;;;;9.07;3.87;;;12.40;99.90;;;;;;5052372;28;20505;-67
2024/04/06 04:02:50;;;;;;;9.67;3.73;;;12.50;99.90;;;;;;5052780;28;20447;-67
2024/04/06 04:05:18;;;;;;;11.23;4.03;;;12.60;99.90;;;;;;5052241;28;20473;-66
2024/04/06 04:07:44;;;;;;;9.13;3.43;;;12.60;99.90;;;;;;5052277;28;20442;-68
2024/04/06 04:10:11;;;;;;;9.60;3.90;;;12.70;99.90;;;;;;5051969;28;20489;-68
2024/04/06 04:12:36;;;;;;;12.13;3.87;;;12.70;99.90;;;;;;5051734;28;20439;-68
2024/04/06 04:15:06;;;;;;;7.93;3.20;;;12.70;99.90;;;;;;5051480;28;20473;-68
2024/04/06 04:17:33;;;;;;;11.10;3.40;;;12.80;99.90;;;;;;5051744;28;20451;-68
2024/04/06 04:20:01;;;;;;;11.07;4.10;;;12.70;99.90;;;;;;5051565;28;20446;-70
2024/04/06 04:22:26;;;;;;;9.93;3.20;;;12.70;99.90;;;;;;5052686;28;21023;-68
2024/04/06 04:24:54;;;;;;;8.47;3.50;;;12.60;99.90;;;;;;5062720;28;20465;-68
2024/04/06 04:27:20;;;;;;;9.10;3.70;;;12.70;99.90;;;;;;5051125;28;20460;-69
2024/04/06 04:29:47;;;;;;;11.23;3.47;;;12.60;99.90;;;;;;5050757;28;20448;-69
2024/04/06 04:32:12;;;;;;;9.27;3.73;;;12.50;99.90;;;;;;5050845;28;20446;-68
2024/04/06 04:34:41;;;;;;;11.17;5.57;;;12.50;99.90;;;;;;5050959;28;20453;-68
2024/04/06 04:37:07;;;;;;;8.50;3.30;;;12.50;99.90;;;;;;5050914;28;20442;-68
2024/04/06 04:39:34;;;;;;;8.80;3.50;;;12.50;99.90;;;;;;5049341;28;20452;-68
2024/04/06 04:42:00;;;;;;;10.70;3.93;;;12.40;99.90;;;;;;5075580;28;20979;-68
2024/04/06 04:44:27;;;;;;;10.13;3.73;;;12.20;99.90;;;;;;5057430;28;20446;-69
2024/04/06 04:46:53;;;;;;;7.53;3.00;;;12.30;99.90;;;;;;5047790;28;20522;-68
2024/04/06 04:49:20;;;;;;;8.47;3.37;;;12.30;99.90;;;;;;5057291;28;20444;-67
2024/04/06 04:51:47;;;;;;;9.20;3.70;;;12.30;99.90;;;;;;5048439;28;20489;-67
2024/04/06 04:54:15;;;;;;;9.07;4.17;;;12.20;99.90;;;;;;5050392;28;20462;-67
2024/04/06 04:56:41;;;;;;;7.70;2.97;;;12.10;99.90;;;;;;5050445;28;21014;-68
2024/04/06 04:59:07;;;;;;;8.70;3.43;;;12.00;99.90;;;;;;5051259;28;20447;-67
2024/04/06 05:01:33;;;;;;;8.30;3.20;;;12.00;99.90;;;;;;5048219;28;20439;-67
2024/04/06 05:04:00;;;;;;;9.13;3.73;;;11.80;99.90;;;;;;5050134;28;20443;-67
2024/04/06 05:06:26;;;;;;;9.90;3.83;;;11.70;99.90;;;;;;5040545;28;20494;-67
2024/04/06 05:08:57;;;;;;;8.90;3.60;;;11.60;99.90;;;;;;5047820;28;20451;-67
2024/04/06 05:11:23;;;;;;;9.00;3.80;;;11.50;99.90;;;;;;5047494;28;20490;-67
2024/04/06 05:13:51;;;;;;;8.80;3.27;;;11.50;99.90;;;;;;5047517;28;20972;-66
2024/04/06 05:16:17;;;;;;;8.70;3.60;;;11.70;99.90;;;;;;5048974;28;20479;-67
2024/04/06 05:18:44;;;;;;;8.13;3.27;;;11.70;99.90;;;;;;5050622;28;20477;-67
2024/04/06 05:21:10;;;;;;;8.83;3.27;;;11.70;99.90;;;;;;5050328;28;20521;-67
2024/04/06 05:23:37;;;;;;;9.73;3.33;;;11.80;99.90;;;;;;5050178;28;20529;-67
2024/04/06 05:26:05;;;;;;;8.33;3.27;;;11.80;99.90;;;;;;5066759;28;20466;-67
2024/04/06 05:28:32;;;;;;;8.50;3.30;;;11.80;99.90;;;;;;5067130;28;20810;-67
2024/04/06 05:30:57;;;;;;;9.60;3.03;;;11.90;99.90;;;;;;5050133;28;20480;-67
2024/04/06 05:33:25;;;;;;;8.67;3.00;;;11.80;99.90;;;;;;5050049;28;21121;-68
2024/04/06 05:35:51;;;;;;;7.83;3.50;;;11.70;99.90;;;;;;5049826;28;20467;-66
2024/04/06 05:38:21;;;;;;;10.47;3.50;;;11.70;99.90;;;;;;5050391;28;20453;-67
2024/04/06 05:40:50;;;;;;;9.80;3.60;;;11.60;99.90;;;;;;5050284;28;20446;-68
2024/04/06 05:43:19;;;;;;;8.03;3.43;;;11.50;99.90;;;;;;5049525;28;20898;-68
2024/04/06 05:45:45;;;;;;;8.33;3.27;;;11.50;99.90;;;;;;5060872;28;21012;-67
2024/04/06 05:48:12;;;;;;;9.80;3.20;;;11.40;99.90;;;;;;5048119;28;20441;-68
2024/04/06 05:50:40;;;;;;;8.10;3.23;;;11.40;99.90;;;;;;5050075;28;20482;-67
2024/04/06 05:53:07;;;;;;;11.33;4.67;;;11.40;99.90;;;;;;5066484;28;20449;-67
2024/04/06 05:55:33;;;;;;;8.73;4.37;;;11.50;99.90;;;;;;5049807;28;20467;-67
2024/04/06 05:58:00;;;;;;;10.93;3.33;;;11.70;99.90;;;;;;5050075;28;20466;-67
2024/04/06 06:00:27;;;;;;;9.07;3.17;;;11.90;99.90;;;;;;5066625;28;20966;-67
2024/04/06 06:02:55;;;;;;;12.60;3.63;;;12.00;99.90;;;;;;5066157;28;20447;-66
2024/04/06 06:05:22;;;;;;;8.83;2.93;;;12.00;99.90;;;;;;5062362;28;20838;-66
2024/04/06 06:07:49;;;;;;;8.30;3.50;;;12.20;99.90;;;;;;5049541;28;21815;-67
2024/04/06 06:10:16;;;;;;;9.20;3.30;;;12.40;99.90;;;;;;5050237;28;20448;-65
2024/04/06 06:12:43;;;;;;;8.47;3.20;;;12.60;99.90;;;;;;5066586;28;20496;-68
2024/04/06 06:15:10;;;;;;;8.87;3.10;;;12.80;99.90;;;;;;5049966;28;20475;-67
2024/04/06 06:17:40;;;;;;;10.63;3.10;;;12.90;99.90;;;;;;5049763;28;20458;-67
2024/04/06 06:20:07;;;;;;;10.63;3.30;;;12.90;99.90;;;;;;5070781;28;20447;-67
2024/04/06 06:22:34;;;;;;;8.00;3.07;;;13.00;99.90;;;;;;5053899;28;20475;-67
2024/04/06 06:25:00;;;;;;;9.90;3.20;;;13.20;99.90;;;;;;5053162;28;20591;-69
2024/04/06 06:27:27;;;;;;;9.87;3.10;;;13.30;99.90;;;;;;5053656;28;20497;-68
2024/04/06 06:29:54;;;;;;;10.00;3.67;;;13.30;99.90;;;;;;5070380;28;20455;-64
2024/04/06 06:32:22;;;;;;;9.37;2.93;;;13.30;99.90;;;;;;5053151;28;20482;-67
2024/04/06 06:34:49;;;;;;;8.00;2.90;;;13.40;99.90;;;;;;5053138;28;20443;-67
2024/04/06 06:37:16;;;;;;;9.37;2.83;;;13.40;99.90;;;;;;5053390;28;20455;-67
2024/04/06 06:39:42;;;;;;;9.60;3.67;;;13.40;99.90;;;;;;5069956;28;20439;-67
2024/04/06 06:42:10;;;;;;;9.30;3.23;;;13.70;99.90;;;;;;5053464;28;20863;-67
2024/04/06 06:44:36;;;;;;;8.93;3.30;;;13.80;99.90;;;;;;5052378;28;20479;-68
2024/04/06 06:47:05;;;;;;;9.27;3.40;;;13.90;99.90;;;;;;5052068;28;20448;-68
2024/04/06 06:49:31;;;;;;;8.20;2.80;;;14.30;99.90;;;;;;5051225;28;21479;-67
2024/04/06 06:52:00;;;;;;;8.23;3.00;;;14.60;99.90;;;;;;5051284;28;20479;-67
2024/04/06 06:54:27;;;;;;;9.43;3.17;;;14.80;99.90;;;;;;5067874;28;20461;-67
2024/04/06 06:56:54;;;;;;;7.50;3.03;;;14.80;99.90;;;;;;5050823;28;20471;-66
2024/04/06 06:59:21;;;;;;;10.60;2.90;;;14.80;99.90;;;;;;5067880;28;20455;-67
2024/04/06 07:01:47;;;;;;;12.32;2.90;;;14.80;99.90;;;;;;5050803;28;20441;-67
2024/04/06 07:04:15;;;;;;;8.80;2.80;;;14.80;99.90;;;;;;5067179;28;20207;-67
2024/04/06 07:06:41;;;;;;;7.87;2.20;;;14.90;99.90;;;;;;5049864;28;20472;-67
2024/04/06 07:09:09;;;;;;;7.77;2.00;;;15.00;99.90;;;;;;5051905;28;20444;-67
2024/04/06 07:11:35;;;;;;;12.00;2.97;;;15.20;99.90;;;;;;5052675;28;21112;-67
2024/04/06 07:14:02;;;;;;;12.87;2.90;;;15.30;99.90;;;;;;5050329;28;20798;-67
2024/04/06 07:16:28;;;;;;;9.60;2.70;;;15.30;99.90;;;;;;5049909;28;20975;-67
2024/04/06 07:18:55;;;;;;;10.90;2.70;;;15.50;99.90;;;;;;5051906;28;20805;-68
2024/04/06 07:21:22;;;;;;;12.03;2.67;;;15.50;99.90;;;;;;5051982;28;20439;-67
2024/04/06 07:23:49;;;;;;;7.83;2.30;;;15.50;99.90;;;;;;5051637;28;20516;-66
2024/04/06 07:26:16;;;;;;;7.13;2.17;;;15.60;99.90;;;;;;5068401;28;20475;-68
2024/04/06 07:28:44;;;;;;;10.00;2.40;;;15.70;99.90;;;;;;5051309;28;20940;-67
2024/04/06 07:31:10;;;;;;;9.03;2.53;;;15.90;99.90;;;;;;5052054;28;20491;-67
2024/04/06 07:33:37;;;;;;;8.10;2.67;;;16.00;99.90;;;;;;5068407;28;20439;-67
2024/04/06 07:36:03;;;;;;;7.50;2.27;;;16.10;99.90;;;;;;5051815;28;20470;-68
2024/04/06 07:38:30;;;;;;;9.10;2.20;;;16.40;99.90;;;;;;5051922;28;20452;-68
2024/04/06 07:40:57;;;;;;;9.50;2.80;;;16.80;99.90;;;;;;5052611;28;20446;-67
2024/04/06 07:43:26;;;;;;;8.27;2.10;;;17.10;99.90;;;;;;5051873;28;20447;-66
2024/04/06 07:45:52;;;;;;;7.70;2.17;;;17.20;99.90;;;;;;5053141;28;20483;-66
2024/04/06 07:48:19;;;;;;;7.87;2.00;;;17.20;99.90;;;;;;5054353;28;20443;-67
2024/04/06 07:50:45;;;;;;;7.60;2.10;;;17.20;99.90;;;;;;5069948;28;20458;-65
2024/04/06 07:53:13;;;;;;;8.93;2.60;;;17.20;99.90;;;;;;5051072;28;20454;-66
2024/04/06 07:55:39;;;;;;;8.00;2.40;;;17.30;99.90;;;;;;5050747;28;20462;-67
2024/04/06 07:58:06;;;;;;;8.60;2.60;;;17.40;99.90;;;;;;5051240;28;20443;-68
2024/04/06 08:00:34;;;;;;;7.63;1.77;;;17.60;99.90;;;;;;5051531;28;20447;-66
2024/04/06 08:03:01;;;;;;;8.90;2.70;;;17.70;99.90;;;;;;5049871;28;20937;-67
2024/04/06 08:05:27;;;;;;;9.90;2.43;;;17.70;99.90;;;;;;5051222;28;20221;-67
2024/04/06 08:07:54;;;;;;;10.97;2.63;;;17.70;99.90;;;;;;5055096;28;20460;-66
2024/04/06 08:10:21;;;;;;;11.03;2.30;;;17.80;99.90;;;;;;5053128;28;20447;-67
2024/04/06 08:12:50;;;;;;;10.20;3.00;;;18.00;99.90;;;;;;5053702;28;21004;-66
2024/04/06 08:15:16;;;;;;;8.60;2.60;;;18.30;99.90;;;;;;5054933;28;20490;-67
2024/04/06 08:17:46;;;;;;;9.03;2.50;;;18.50;99.90;;;;;;5055233;28;20447;-68
2024/04/06 08:20:13;;;;;;;9.20;2.27;;;18.50;99.90;;;;;;5055007;28;20860;-66
2024/04/06 08:22:40;;;;;;;9.87;1.90;;;18.60;99.90;;;;;;5071500;28;21235;-67
2024/04/06 08:25:06;;;;;;;6.97;1.90;;;18.90;99.90;;;;;;5056377;28;20478;-67
2024/04/06 08:27:34;;;;;;;7.03;1.87;;;19.20;99.90;;;;;;5056496;28;20455;-69
2024/04/06 08:30:00;;;;;;;9.20;2.90;;;19.40;99.90;;;;;;5073140;28;20450;-67
2024/04/06 08:32:29;;;;;;;11.47;2.37;;;19.80;96.90;;;;;;5056528;28;20554;-68
2024/04/06 08:34:58;;;;;;;8.07;2.00;;;20.00;96.20;;;;;;5049507;28;20467;-67
2024/04/06 08:37:25;;;;;;;6.80;1.70;;;20.20;95.40;;;;;;5067887;28;20455;-67
2024/04/06 08:39:51;;;;;;;8.87;1.80;;;20.30;93.70;;;;;;5051693;28;20454;-69
2024/04/06 08:42:19;;;;;;;8.67;1.83;;;20.50;93.60;;;;;;5052505;28;20443;-69
2024/04/06 08:44:46;;;;;;;8.63;2.10;;;20.50;94.40;;;;;;5051585;28;20485;-68
2024/04/06 08:47:15;;;;;;;8.23;1.57;;;20.60;91.60;;;;;;5052168;28;20439;-67
2024/04/06 08:49:41;;;;;;;8.50;2.07;;;20.70;92.90;;;;;;5051275;28;20447;-69
2024/04/06 08:52:11;;;;;;;6.70;1.60;;;20.80;93.30;;;;;;5052400;28;20482;-68
2024/04/06 08:54:38;;;;;;;7.70;1.67;;;20.90;92.00;;;;;;5052251;28;20440;-69
2024/04/06 08:57:06;;;;;;;7.10;1.80;;;20.90;92.40;;;;;;5051469;28;20830;-70
2024/04/06 08:59:33;;;;;;;7.37;1.80;;;20.80;92.30;;;;;;5051087;28;20451;-69
2024/04/06 09:02:00;;;;;;;9.93;1.60;;;20.90;91.80;;;;;;5050074;28;20462;-66
2024/04/06 09:04:26;;;;;;;8.70;2.20;;;21.00;92.00;;;;;;5049400;28;20794;-66
2024/04/06 09:06:54;;;;;;;29.37;4.10;;;21.20;90.30;;;;;;5064464;28;20475;-65
2024/04/06 09:09:22;;;;;;;6.90;1.80;;;21.40;90.30;;;;;;5050008;28;20439;-67
2024/04/06 09:11:49;;;;;;;8.03;1.70;;;21.60;89.00;;;;;;5049737;28;20536;-69
2024/04/06 09:14:15;;;;;;;8.30;1.90;;;21.80;88.00;;;;;;5065681;28;20861;-66
2024/04/06 09:16:43;;;;;;;7.77;1.93;;;21.90;85.90;;;;;;5047688;28;20463;-67
2024/04/06 09:19:09;;;;;;;37.63;6.80;;;22.00;87.00;;;;;;5049966;28;20458;-68
2024/04/06 09:21:37;;;;;;;10.37;2.40;;;22.30;83.30;;;;;;5064106;28;22169;-67
2024/04/06 09:24:03;;;;;;;13.67;2.40;;;22.50;84.10;;;;;;5050979;28;20784;-67
2024/04/06 09:26:33;;;;;;;8.63;2.00;;;22.80;87.30;;;;;;5056594;28;20467;-67
2024/04/06 09:29:00;;;;;;;8.37;1.80;;;23.50;77.40;;;;;;5060272;28;20820;-66
2024/04/06 09:31:29;;;;;;;8.13;1.90;;;23.70;77.60;;;;;;5057201;28;20992;-67
2024/04/06 09:33:56;;;;;;;8.37;1.97;;;23.90;73.40;;;;;;5045955;28;20463;-67
2024/04/06 09:36:24;;;;;;;8.60;2.03;;;23.90;71.80;;;;;;5050588;28;20474;-67
2024/04/06 09:38:51;;;;;;;6.90;2.00;;;23.90;71.70;;;;;;5064145;28;20459;-67
2024/04/06 09:41:20;;;;;;;10.33;2.10;;;24.20;71.40;;;;;;5047313;28;20496;-66
2024/04/06 09:43:49;;;;;;;9.73;2.47;;;24.50;71.90;;;;;;5051762;28;20439;-66
2024/04/06 09:46:16;;;;;;;7.83;1.73;;;24.60;75.10;;;;;;5048736;28;20844;-66
2024/04/06 09:48:43;;;;;;;8.00;2.00;;;24.90;71.20;;;;;;5037464;28;20444;-68
2024/04/06 09:51:10;;;;;;;9.33;1.97;;;25.10;71.20;;;;;;5045028;28;20455;-68
2024/04/06 09:53:38;;;;;;;7.30;2.10;;;25.40;67.00;;;;;;5057163;28;20829;-67
2024/04/06 09:56:07;;;;;;;7.30;1.90;;;25.50;66.70;;;;;;5059051;28;20470;-68
2024/04/06 09:58:34;;;;;;;8.50;1.90;;;25.70;66.20;;;;;;5050097;28;20437;-66
2024/04/06 10:01:11;;;;;;;8.27;2.00;;;26.00;67.00;;;;;;5046613;28;20459;-68
2024/04/06 10:03:43;;;;;;;8.13;2.00;;;26.40;65.80;;;;;;5048003;28;20452;-68
2024/04/06 10:06:11;;;;;;;8.20;1.70;;;26.70;61.20;;;;;;5046061;28;20464;-68
2024/04/06 10:08:47;;;;;;;8.80;2.00;;;26.50;61.30;;;;;;5047969;28;20435;-68
2024/04/06 10:11:17;;;;;;;7.30;1.90;;;26.60;57.80;;;;;;5047742;28;20451;-67
2024/04/06 10:13:53;;;;;;;7.17;1.70;;;26.80;57.60;;;;;;5061156;28;20457;-67
2024/04/06 10:16:23;;;;;;;7.87;1.80;;;27.00;55.00;;;;;;5073606;28;20481;-67
2024/04/06 10:18:49;;;;;;;7.10;2.00;;;27.30;53.10;;;;;;5050660;28;20497;-69
2024/04/06 10:21:17;;;;;;;6.40;1.30;;;27.40;54.20;;;;;;5047821;28;20459;-69
2024/04/06 10:23:46;;;;;;;7.63;1.60;;;27.50;53.20;;;;;;5047059;28;20446;-68
2024/04/06 10:26:15;;;;;;;7.67;1.73;;;27.60;51.30;;;;;;5047877;28;20478;-67
2024/04/06 10:28:42;;;;;;;7.93;1.60;;;27.90;50.40;;;;;;5048517;28;20454;-69
2024/04/06 10:31:09;;;;;;;6.70;1.60;;;27.80;50.70;;;;;;5048885;28;20451;-68
2024/04/06 10:33:38;;;;;;;6.90;1.67;;;28.00;47.80;;;;;;5049182;28;20463;-69
2024/04/06 10:36:09;;;;;;;7.73;1.60;;;28.20;48.90;;;;;;5048997;28;20878;-68
2024/04/06 10:38:35;;;;;;;10.40;1.73;;;28.50;49.20;;;;;;5053529;28;20454;-67
2024/04/06 10:41:03;;;;;;;7.57;1.67;;;28.60;47.00;;;;;;5048836;28;20443;-68
2024/04/06 10:43:30;;;;;;;6.40;1.20;;;28.70;47.00;;;;;;5048694;28;20475;-67
2024/04/06 10:45:56;;;;;;;8.53;2.13;;;28.70;46.40;;;;;;5047224;28;20497;-68
2024/04/06 10:48:23;;;;;;;7.10;1.60;;;28.80;45.20;;;;;;5045405;28;20447;-67
2024/04/06 10:50:51;;;;;;;6.80;1.40;;;28.90;43.20;;;;;;5045566;28;20470;-68
2024/04/06 10:53:18;;;;;;;7.17;1.10;;;29.10;40.10;;;;;;5046197;28;20440;-68
2024/04/06 10:55:46;;;;;;;7.70;1.33;;;29.10;37.70;;;;;;5068682;28;20986;-68
2024/04/06 10:58:12;;;;;;;6.83;1.30;;;29.00;37.70;;;;;;5063357;28;20817;-68
2024/04/06 11:00:40;;;;;;;6.83;1.23;;;29.10;37.50;;;;;;5053731;28;20945;-69
2024/04/06 11:03:07;;;;;;;6.50;0.90;;;29.20;38.70;;;;;;5072426;28;20486;-68
2024/04/06 11:05:35;;;;;;;6.70;1.00;;;29.40;37.40;;;;;;5059538;28;20860;-69
2024/04/06 11:08:04;;;;;;;6.30;1.00;;;29.50;37.60;;;;;;5056366;28;20471;-67
2024/04/06 11:10:31;;;;;;;7.30;1.10;;;29.60;37.80;;;;;;5041945;28;20937;-68
2024/04/06 11:12:58;;;;;;;8.67;1.20;;;29.80;35.50;;;;;;5046028;28;20781;-68
2024/04/06 11:15:27;;;;;;;7.47;1.30;;;29.80;35.80;;;;;;5044193;28;20463;-69
2024/04/06 11:17:54;;;;;;;6.80;0.90;;;30.00;35.30;;;;;;5047694;28;20508;-67
2024/04/06 11:20:21;;;;;;;7.03;1.40;;;30.30;34.50;;;;;;5067126;28;20446;-69
2024/04/06 11:22:47;;;;;;;7.57;1.10;;;30.20;35.70;;;;;;5068069;28;20482;-68
2024/04/06 11:25:17;;;;;;;6.63;1.23;;;30.30;35.40;;;;;;5051262;28;20463;-68
2024/04/06 11:27:46;;;;;;;6.87;1.20;;;29.60;33.80;;;;;;5050842;28;20443;-69
2024/04/06 11:30:13;;;;;;;6.70;1.50;;;29.30;36.40;;;;;;5068003;28;20439;-68
2024/04/06 11:32:39;;;;;;;6.53;0.90;;;29.70;36.60;;;;;;5052068;28;20454;-68
2024/04/06 11:35:07;;;;;;;7.80;1.30;;;30.30;36.70;;;;;;5053165;28;20467;-68
2024/04/06 11:37:33;;;;;;;6.30;0.90;;;30.00;34.40;;;;;;5051619;28;20454;-70
2024/04/06 11:40:00;;;;;;;6.17;0.93;;;29.50;34.70;;;;;;5051954;28;20447;-69
2024/04/06 11:42:28;;;;;;;6.83;1.20;;;29.20;36.70;;;;;;5051756;28;20476;-70
2024/04/06 11:44:55;;;;;;;6.90;1.00;;;29.90;37.40;;;;;;5051687;28;20521;-70
2024/04/06 11:47:21;;;;;;;7.57;1.53;;;30.70;34.10;;;;;;5068030;28;20458;-69
2024/04/06 11:49:49;;;;;;;6.40;1.10;;;31.60;33.50;;;;;;5051546;28;20464;-70
2024/04/06 11:52:15;;;;;;;7.47;1.30;;;32.10;33.80;;;;;;5056603;28;20939;-70
2024/04/06 11:54:43;;;;;;;7.10;1.30;;;32.70;33.10;;;;;;5051901;28;20447;-70
2024/04/06 11:57:10;;;;;;;6.63;1.50;;;32.90;33.80;;;;;;5046948;28;20448;-69
2024/04/06 11:59:38;;;;;;;7.10;1.50;;;33.00;32.80;;;;;;5052408;28;20454;-69
2024/04/06 12:02:04;;;;;;;6.87;1.23;;;33.10;30.90;;;;;;5051985;28;20475;-69
2024/04/06 12:04:31;;;;;;;6.63;1.07;;;33.30;32.70;;;;;;5048712;28;20954;-74
2024/04/06 12:06:58;;;;;;;6.30;0.90;;;33.20;31.20;;;;;;5053102;28;20466;-68
2024/04/06 12:09:26;;;;;;;6.70;1.20;;;33.30;30.70;;;;;;5051740;28;20455;-75
2024/04/06 12:11:52;;;;;;;6.53;1.00;;;32.80;30.00;;;;;;5049017;28;20440;-67
2024/04/06 12:14:20;;;;;;;6.33;1.17;;;31.90;31.40;;;;;;5070351;28;20447;-68
2024/04/06 12:16:47;;;;;;;6.57;1.10;;;31.20;31.50;;;;;;5047281;28;20467;-68
2024/04/06 12:19:14;;;;;;;6.43;1.10;;;31.70;30.40;;;;;;5050952;28;20448;-68
2024/04/06 12:21:40;;;;;;;6.50;1.30;;;32.60;31.20;;;;;;5049542;28;20443;-69
2024/04/06 12:24:07;;;;;;;6.70;1.53;;;33.20;31.70;;;;;;5048693;28;20450;-68
2024/04/06 12:26:34;;;;;;;7.50;1.77;;;33.60;29.60;;;;;;5047820;28;20495;-69
2024/04/06 12:29:01;;;;;;;6.00;1.07;;;33.80;29.90;;;;;;5048571;28;20451;-69
2024/04/06 12:31:27;;;;;;;6.40;0.90;;;34.20;29.30;;;;;;5048026;28;20447;-68
2024/04/06 12:33:56;;;;;;;7.00;1.40;;;34.60;30.30;;;;;;5047746;28;20860;-67
2024/04/06 12:36:22;;;;;;;7.70;1.43;;;34.40;28.90;;;;;;5049422;28;20537;-67
2024/04/06 12:38:49;;;;;;;6.47;1.47;;;34.40;30.20;;;;;;5049530;28;20979;-67
2024/04/06 12:41:15;;;;;;;6.57;0.97;;;34.30;28.90;;;;;;5050272;28;20451;-67